Airfield :
LOGIN :

Register | Disclaimer

   EN    FR    IT 

 










Legend :    VFR   Marginal VFR   IFR   Intensive IFR   Very Intensive IFR
Visi :
Ceiling :
>= 8 km
>= 3000ft
5 to 8 km
1000 to 3000 ft
1500m to 5 km
500 to 1000 ft
800 to 1500m
200 to 500 ft
< 800m
< 200 ft
Symbols :   Thunderstorms  Fog  Heavy snow  Heavy precipitations  Wind > 20 kt
SIGMETs :     Misc.  Thunderstorms  Icing  Turbulence  Mountain Waves  Volcanic Ashes






- Airport Elevation : 885 ft
- IATA code : BAS


LFSB - Bale-Mulhouse

CURRENT METAR :
  • 211930Z AUTO 25011KT CAVOK 12/04 Q1016 NOSIG

EXPIRED METARs :
  • 211900Z AUTO 25010KT CAVOK 13/03 Q1016 TEMPO FEW050CB BKN080
  • 211830Z AUTO 27010KT CAVOK 14/04 Q1015 TEMPO FEW050CB BKN080
  • 211800Z AUTO 29007KT CAVOK 15/04 Q1015 TEMPO FEW050CB BKN080
  • 211730Z AUTO 30006KT CAVOK 17/03 Q1015 TEMPO FEW050CB BKN080
  • 211700Z 30010KT 9999 FEW050 FEW060CB 17/02 Q1015 NOSIG

TAF TAF LFSB
Valid from the 21 at 18:00 until the 22 at 18:00 UTC


211700Z 2118/2218 29005KT 9999 FEW060TCU
PROB40
TEMPO 2118/2120 -SHRA FEW050CB BKN080
BECMG 2119/2122 NSC
TEMPO 2203/2208 BKN007
PROB40
TEMPO 2202/2206 4000 BR
PROB40
TEMPO 2208/2209 BKN013
BECMG 2209/2212 36010KT FEW040TCU
TEMPO 2210/2215 FEW050CB
BECMG 2215/2217 NSC
Met : +33 3 89 90 31 11



MET'MAP, your aeronautical weather chart ! - Copyright ORBIFLY December 2007 - Disclaimer

ORBIFLY MET'MAP TEAM :

Programming & Development : Alexandra Zaïnal
Concept & original design : Baudouin d'Aumeries
Assistance for programming : Marc-Olivier Méhu
Technical & hardware support : Manuel Goepfert

Contact : metmap@orbifly.com




SOURCES & CREDITS :

   NOAA